sensor_id;sensor_type;location;lat;lon;timestamp;temperature;humidity
3086;DHT22;52812;48.960;9.108;2023-08-01T00:01:32;17.80;99.90
3086;DHT22;52812;48.960;9.108;2023-08-01T00:03:57;17.80;99.90
3086;DHT22;52812;48.960;9.108;2023-08-01T00:06:23;17.80;99.90
3086;DHT22;52812;48.960;9.108;2023-08-01T00:08:50;17.70;99.90
3086;DHT22;52812;48.960;9.108;2023-08-01T00:11:16;17.70;99.90
3086;DHT22;52812;48.960;9.108;2023-08-01T00:13:43;17.70;99.90
3086;DHT22;52812;48.960;9.108;2023-08-01T00:16:09;17.70;99.90
3086;DHT22;52812;48.960;9.108;2023-08-01T00:18:35;17.70;99.90
3086;DHT22;52812;48.960;9.108;2023-08-01T00:21:01;17.60;99.90
3086;DHT22;52812;48.960;9.108;2023-08-01T00:23:26;17.60;99.90
3086;DHT22;52812;48.960;9.108;2023-08-01T00:25:52;17.60;99.90
3086;DHT22;52812;48.960;9.108;2023-08-01T00:28:18;17.60;99.90
3086;DHT22;52812;48.960;9.108;2023-08-01T00:30:44;17.50;99.90
3086;DHT22;52812;48.960;9.108;2023-08-01T00:33:09;17.50;99.90
3086;DHT22;52812;48.960;9.108;2023-08-01T00:35:35;17.50;99.90
3086;DHT22;52812;48.960;9.108;2023-08-01T00:38:00;17.60;99.90
3086;DHT22;52812;48.960;9.108;2023-08-01T00:40:33;17.50;99.90
3086;DHT22;52812;48.960;9.108;2023-08-01T00:42:59;17.40;99.90
3086;DHT22;52812;48.960;9.108;2023-08-01T00:45:26;17.40;99.90
3086;DHT22;52812;48.960;9.108;2023-08-01T00:47:54;17.40;99.90
3086;DHT22;52812;48.960;9.108;2023-08-01T00:50:19;17.40;99.90
3086;DHT22;52812;48.960;9.108;2023-08-01T00:52:46;17.30;99.90
3086;DHT22;52812;48.960;9.108;2023-08-01T00:55:13;17.30;99.90
3086;DHT22;52812;48.960;9.108;2023-08-01T00:57:40;17.30;99.90
3086;DHT22;52812;48.960;9.108;2023-08-01T01:00:06;17.30;99.90
3086;DHT22;52812;48.960;9.108;2023-08-01T01:02:32;17.30;99.90
3086;DHT22;52812;48.960;9.108;2023-08-01T01:04:57;17.30;99.90
3086;DHT22;52812;48.960;9.108;2023-08-01T01:07:23;17.30;99.90
3086;DHT22;52812;48.960;9.108;2023-08-01T01:09:50;17.20;99.90
3086;DHT22;52812;48.960;9.108;2023-08-01T01:12:16;17.20;99.90
3086;DHT22;52812;48.960;9.108;2023-08-01T01:14:41;17.30;99.90
3086;DHT22;52812;48.960;9.108;2023-08-01T01:17:07;17.30;99.90
3086;DHT22;52812;48.960;9.108;2023-08-01T01:19:32;17.20;99.90
3086;DHT22;52812;48.960;9.108;2023-08-01T01:21:58;17.30;99.90
3086;DHT22;52812;48.960;9.108;2023-08-01T01:24:25;17.30;99.90
3086;DHT22;52812;48.960;9.108;2023-08-01T01:26:51;17.40;99.90
3086;DHT22;52812;48.960;9.108;2023-08-01T01:29:18;17.30;99.90
3086;DHT22;52812;48.960;9.108;2023-08-01T01:31:46;17.30;99.90
3086;DHT22;52812;48.960;9.108;2023-08-01T01:34:12;17.40;99.90
3086;DHT22;52812;48.960;9.108;2023-08-01T01:36:38;17.40;99.90
3086;DHT22;52812;48.960;9.108;2023-08-01T01:39:03;17.40;99.90
3086;DHT22;52812;48.960;9.108;2023-08-01T01:41:29;17.40;99.90
3086;DHT22;52812;48.960;9.108;2023-08-01T01:43:54;17.30;99.90
3086;DHT22;52812;48.960;9.108;2023-08-01T01:46:20;17.30;99.90
3086;DHT22;52812;48.960;9.108;2023-08-01T01:48:45;17.30;99.90
3086;DHT22;52812;48.960;9.108;2023-08-01T01:51:11;17.20;99.90
3086;DHT22;52812;48.960;9.108;2023-08-01T01:53:36;17.20;99.90
3086;DHT22;52812;48.960;9.108;2023-08-01T01:56:02;17.20;99.90
3086;DHT22;52812;48.960;9.108;2023-08-01T01:58:27;17.10;99.90
3086;DHT22;52812;48.960;9.108;2023-08-01T02:00:53;17.10;99.90
3086;DHT22;52812;48.960;9.108;2023-08-01T02:03:18;17.20;99.90
3086;DHT22;52812;48.960;9.108;2023-08-01T02:05:44;17.20;99.90
3086;DHT22;52812;48.960;9.108;2023-08-01T02:08:10;17.10;99.90
3086;DHT22;52812;48.960;9.108;2023-08-01T02:10:36;17.10;99.90
3086;DHT22;52812;48.960;9.108;2023-08-01T02:13:01;17.10;99.90
3086;DHT22;52812;48.960;9.108;2023-08-01T02:15:27;17.10;99.90
3086;DHT22;52812;48.960;9.108;2023-08-01T02:17:52;17.10;99.90
3086;DHT22;52812;48.960;9.108;2023-08-01T02:20:18;17.00;99.90
3086;DHT22;52812;48.960;9.108;2023-08-01T02:22:43;17.00;99.90
3086;DHT22;52812;48.960;9.108;2023-08-01T02:25:09;17.10;99.90
3086;DHT22;52812;48.960;9.108;2023-08-01T02:27:34;17.00;99.90
3086;DHT22;52812;48.960;9.108;2023-08-01T02:30:00;17.00;99.90
3086;DHT22;52812;48.960;9.108;2023-08-01T02:32:26;17.00;99.90
3086;DHT22;52812;48.960;9.108;2023-08-01T02:34:51;17.00;99.90
3086;DHT22;52812;48.960;9.108;2023-08-01T02:37:17;17.00;99.90
3086;DHT22;52812;48.960;9.108;2023-08-01T02:39:42;17.00;99.90
3086;DHT22;52812;48.960;9.108;2023-08-01T02:42:08;17.00;99.90
3086;DHT22;52812;48.960;9.108;2023-08-01T02:44:33;17.00;99.90
3086;DHT22;52812;48.960;9.108;2023-08-01T02:46:59;16.90;99.90
3086;DHT22;52812;48.960;9.108;2023-08-01T02:49:24;17.00;99.90
3086;DHT22;52812;48.960;9.108;2023-08-01T02:51:50;17.00;99.90
3086;DHT22;52812;48.960;9.108;2023-08-01T02:54:15;17.00;99.90
3086;DHT22;52812;48.960;9.108;2023-08-01T02:56:41;17.00;99.90
3086;DHT22;52812;48.960;9.108;2023-08-01T02:59:07;16.90;99.90
3086;DHT22;52812;48.960;9.108;2023-08-01T03:01:34;17.00;99.90
3086;DHT22;52812;48.960;9.108;2023-08-01T03:04:02;16.90;99.90
3086;DHT22;52812;48.960;9.108;2023-08-01T03:06:27;16.90;99.90
3086;DHT22;52812;48.960;9.108;2023-08-01T03:08:53;16.90;99.90
3086;DHT22;52812;48.960;9.108;2023-08-01T03:11:18;16.90;99.90
3086;DHT22;52812;48.960;9.108;2023-08-01T03:13:44;16.90;99.90
3086;DHT22;52812;48.960;9.108;2023-08-01T03:16:09;16.80;99.90
3086;DHT22;52812;48.960;9.108;2023-08-01T03:18:35;16.90;99.90
3086;DHT22;52812;48.960;9.108;2023-08-01T03:21:01;16.90;99.90
3086;DHT22;52812;48.960;9.108;2023-08-01T03:23:29;16.90;99.90
3086;DHT22;52812;48.960;9.108;2023-08-01T03:25:55;17.00;99.90
3086;DHT22;52812;48.960;9.108;2023-08-01T03:28:20;17.00;99.90
3086;DHT22;52812;48.960;9.108;2023-08-01T03:30:46;17.00;99.90
3086;DHT22;52812;48.960;9.108;2023-08-01T03:33:15;17.00;99.90
3086;DHT22;52812;48.960;9.108;2023-08-01T03:35:40;17.00;99.90
3086;DHT22;52812;48.960;9.108;2023-08-01T03:38:06;17.00;99.90
3086;DHT22;52812;48.960;9.108;2023-08-01T03:40:32;16.90;99.90
3086;DHT22;52812;48.960;9.108;2023-08-01T03:42:57;16.90;99.90
3086;DHT22;52812;48.960;9.108;2023-08-01T03:45:23;16.90;99.90
3086;DHT22;52812;48.960;9.108;2023-08-01T03:47:48;16.90;99.90
3086;DHT22;52812;48.960;9.108;2023-08-01T03:50:14;16.80;99.90
3086;DHT22;52812;48.960;9.108;2023-08-01T03:52:40;16.90;99.90
3086;DHT22;52812;48.960;9.108;2023-08-01T03:55:06;16.80;99.90
3086;DHT22;52812;48.960;9.108;2023-08-01T03:57:31;16.80;99.90
3086;DHT22;52812;48.960;9.108;2023-08-01T03:59:59;16.80;99.90
3086;DHT22;52812;48.960;9.108;2023-08-01T04:02:25;16.80;99.90
3086;DHT22;52812;48.960;9.108;2023-08-01T04:04:50;16.80;99.90
3086;DHT22;52812;48.960;9.108;2023-08-01T04:07:16;16.80;99.90
3086;DHT22;52812;48.960;9.108;2023-08-01T04:09:41;16.80;99.90
3086;DHT22;52812;48.960;9.108;2023-08-01T04:12:07;16.80;99.90
3086;DHT22;52812;48.960;9.108;2023-08-01T04:14:34;16.80;99.90
3086;DHT22;52812;48.960;9.108;2023-08-01T04:16:59;16.80;99.90
3086;DHT22;52812;48.960;9.108;2023-08-01T04:19:25;16.80;99.90
3086;DHT22;52812;48.960;9.108;2023-08-01T04:21:51;16.80;99.90
3086;DHT22;52812;48.960;9.108;2023-08-01T04:24:16;17.00;99.90
3086;DHT22;52812;48.960;9.108;2023-08-01T04:26:42;17.20;99.90
3086;DHT22;52812;48.960;9.108;2023-08-01T04:29:07;17.20;99.90
3086;DHT22;52812;48.960;9.108;2023-08-01T04:31:33;17.20;99.90
3086;DHT22;52812;48.960;9.108;2023-08-01T04:33:58;17.10;99.90
3086;DHT22;52812;48.960;9.108;2023-08-01T04:36:24;17.10;99.90
3086;DHT22;52812;48.960;9.108;2023-08-01T04:38:49;17.10;99.90
3086;DHT22;52812;48.960;9.108;2023-08-01T04:41:15;17.00;99.90
3086;DHT22;52812;48.960;9.108;2023-08-01T04:43:40;17.00;99.90
3086;DHT22;52812;48.960;9.108;2023-08-01T04:46:06;17.00;99.90
3086;DHT22;52812;48.960;9.108;2023-08-01T04:48:32;17.00;99.90
3086;DHT22;52812;48.960;9.108;2023-08-01T04:50:57;17.10;99.90
3086;DHT22;52812;48.960;9.108;2023-08-01T04:53:23;17.10;99.90
3086;DHT22;52812;48.960;9.108;2023-08-01T04:55:48;17.20;99.90
3086;DHT22;52812;48.960;9.108;2023-08-01T04:58:14;17.20;99.90
3086;DHT22;52812;48.960;9.108;2023-08-01T05:00:42;17.20;99.90
3086;DHT22;52812;48.960;9.108;2023-08-01T05:03:07;17.20;99.90
3086;DHT22;52812;48.960;9.108;2023-08-01T05:05:33;17.20;99.90
3086;DHT22;52812;48.960;9.108;2023-08-01T05:07:58;17.10;99.90
3086;DHT22;52812;48.960;9.108;2023-08-01T05:10:24;17.10;99.90
3086;DHT22;52812;48.960;9.108;2023-08-01T05:12:49;17.00;99.90
3086;DHT22;52812;48.960;9.108;2023-08-01T05:15:15;17.00;99.90
3086;DHT22;52812;48.960;9.108;2023-08-01T05:17:41;16.90;99.90
3086;DHT22;52812;48.960;9.108;2023-08-01T05:20:07;17.00;99.90
3086;DHT22;52812;48.960;9.108;2023-08-01T05:22:32;16.90;99.90
3086;DHT22;52812;48.960;9.108;2023-08-01T05:24:58;16.90;99.90
3086;DHT22;52812;48.960;9.108;2023-08-01T05:27:23;16.90;99.90
3086;DHT22;52812;48.960;9.108;2023-08-01T05:29:49;16.90;99.90
3086;DHT22;52812;48.960;9.108;2023-08-01T05:32:14;16.90;99.90
3086;DHT22;52812;48.960;9.108;2023-08-01T05:34:40;16.90;99.90
3086;DHT22;52812;48.960;9.108;2023-08-01T05:37:05;16.90;99.90
3086;DHT22;52812;48.960;9.108;2023-08-01T05:39:31;16.90;99.90
3086;DHT22;52812;48.960;9.108;2023-08-01T05:41:57;16.90;99.90
3086;DHT22;52812;48.960;9.108;2023-08-01T05:44:22;16.90;99.90
3086;DHT22;52812;48.960;9.108;2023-08-01T05:46:48;17.00;99.90
3086;DHT22;52812;48.960;9.108;2023-08-01T05:49:13;17.10;99.90
3086;DHT22;52812;48.960;9.108;2023-08-01T05:51:39;17.20;99.90
3086;DHT22;52812;48.960;9.108;2023-08-01T05:54:04;17.30;99.90
3086;DHT22;52812;48.960;9.108;2023-08-01T05:56:30;17.30;99.90
3086;DHT22;52812;48.960;9.108;2023-08-01T05:58:55;17.40;99.90
3086;DHT22;52812;48.960;9.108;2023-08-01T06:01:21;17.40;99.90
3086;DHT22;52812;48.960;9.108;2023-08-01T06:03:47;17.50;99.90
3086;DHT22;52812;48.960;9.108;2023-08-01T06:06:13;17.40;99.90
3086;DHT22;52812;48.960;9.108;2023-08-01T06:08:38;17.50;99.90
3086;DHT22;52812;48.960;9.108;2023-08-01T06:11:04;17.50;99.90
3086;DHT22;52812;48.960;9.108;2023-08-01T06:13:29;17.50;99.90
3086;DHT22;52812;48.960;9.108;2023-08-01T06:15:55;17.50;99.90
3086;DHT22;52812;48.960;9.108;2023-08-01T06:18:20;17.50;99.90
3086;DHT22;52812;48.960;9.108;2023-08-01T06:20:46;17.60;99.90
3086;DHT22;52812;48.960;9.108;2023-08-01T06:23:11;17.60;99.90
3086;DHT22;52812;48.960;9.108;2023-08-01T06:25:37;17.60;99.90
3086;DHT22;52812;48.960;9.108;2023-08-01T06:28:02;17.50;99.90
3086;DHT22;52812;48.960;9.108;2023-08-01T06:30:28;17.50;99.90
3086;DHT22;52812;48.960;9.108;2023-08-01T06:32:54;17.50;99.90
3086;DHT22;52812;48.960;9.108;2023-08-01T06:35:19;17.40;99.90
3086;DHT22;52812;48.960;9.108;2023-08-01T06:37:46;17.40;99.90
3086;DHT22;52812;48.960;9.108;2023-08-01T06:40:12;17.30;99.90
3086;DHT22;52812;48.960;9.108;2023-08-01T06:42:37;17.30;99.90
3086;DHT22;52812;48.960;9.108;2023-08-01T06:45:04;17.30;99.90
3086;DHT22;52812;48.960;9.108;2023-08-01T06:47:29;17.30;99.90
3086;DHT22;52812;48.960;9.108;2023-08-01T06:49:55;17.20;99.90
3086;DHT22;52812;48.960;9.108;2023-08-01T06:52:21;17.20;99.90
3086;DHT22;52812;48.960;9.108;2023-08-01T06:54:46;17.20;99.90
3086;DHT22;52812;48.960;9.108;2023-08-01T06:57:13;17.10;99.90
3086;DHT22;52812;48.960;9.108;2023-08-01T06:59:38;17.10;99.90
3086;DHT22;52812;48.960;9.108;2023-08-01T07:02:04;17.10;99.90
3086;DHT22;52812;48.960;9.108;2023-08-01T07:04:30;17.10;99.90
3086;DHT22;52812;48.960;9.108;2023-08-01T07:06:55;17.10;99.90
3086;DHT22;52812;48.960;9.108;2023-08-01T07:09:21;17.10;99.90
3086;DHT22;52812;48.960;9.108;2023-08-01T07:11:46;17.10;99.90
3086;DHT22;52812;48.960;9.108;2023-08-01T07:14:12;17.10;99.90
3086;DHT22;52812;48.960;9.108;2023-08-01T07:16:37;17.00;99.90
3086;DHT22;52812;48.960;9.108;2023-08-01T07:19:03;17.00;99.90
3086;DHT22;52812;48.960;9.108;2023-08-01T07:21:28;17.00;99.90
3086;DHT22;52812;48.960;9.108;2023-08-01T07:23:54;17.10;99.90
3086;DHT22;52812;48.960;9.108;2023-08-01T07:26:20;17.10;99.90
3086;DHT22;52812;48.960;9.108;2023-08-01T07:28:45;17.20;99.90
3086;DHT22;52812;48.960;9.108;2023-08-01T07:31:11;17.20;99.90
3086;DHT22;52812;48.960;9.108;2023-08-01T07:33:36;17.20;99.90
3086;DHT22;52812;48.960;9.108;2023-08-01T07:36:03;17.20;99.90
3086;DHT22;52812;48.960;9.108;2023-08-01T07:38:29;17.20;99.90
3086;DHT22;52812;48.960;9.108;2023-08-01T07:40:57;17.20;99.90
3086;DHT22;52812;48.960;9.108;2023-08-01T07:43:23;17.30;99.90
3086;DHT22;52812;48.960;9.108;2023-08-01T07:45:49;17.20;99.90
3086;DHT22;52812;48.960;9.108;2023-08-01T07:48:17;17.20;99.90
3086;DHT22;52812;48.960;9.108;2023-08-01T07:50:43;17.20;99.90
3086;DHT22;52812;48.960;9.108;2023-08-01T07:53:08;17.30;99.90
3086;DHT22;52812;48.960;9.108;2023-08-01T07:55:34;17.30;99.90
3086;DHT22;52812;48.960;9.108;2023-08-01T07:58:00;17.30;99.90
3086;DHT22;52812;48.960;9.108;2023-08-01T08:00:25;17.50;99.90
3086;DHT22;52812;48.960;9.108;2023-08-01T08:02:51;17.50;99.90
3086;DHT22;52812;48.960;9.108;2023-08-01T08:05:16;17.50;99.90
3086;DHT22;52812;48.960;9.108;2023-08-01T08:07:42;17.40;99.90
3086;DHT22;52812;48.960;9.108;2023-08-01T08:10:08;17.40;99.90
3086;DHT22;52812;48.960;9.108;2023-08-01T08:12:33;17.40;99.90
3086;DHT22;52812;48.960;9.108;2023-08-01T08:14:59;17.30;99.90
3086;DHT22;52812;48.960;9.108;2023-08-01T08:17:24;17.30;99.90
3086;DHT22;52812;48.960;9.108;2023-08-01T08:19:50;17.30;99.90
3086;DHT22;52812;48.960;9.108;2023-08-01T08:22:15;17.40;99.90
3086;DHT22;52812;48.960;9.108;2023-08-01T08:24:41;17.50;99.90
3086;DHT22;52812;48.960;9.108;2023-08-01T08:27:06;17.60;99.90
3086;DHT22;52812;48.960;9.108;2023-08-01T08:29:32;17.60;99.90
3086;DHT22;52812;48.960;9.108;2023-08-01T08:31:59;17.70;99.90
3086;DHT22;52812;48.960;9.108;2023-08-01T08:34:24;17.70;99.90
3086;DHT22;52812;48.960;9.108;2023-08-01T08:36:50;17.70;99.90
3086;DHT22;52812;48.960;9.108;2023-08-01T08:39:16;17.60;99.90
3086;DHT22;52812;48.960;9.108;2023-08-01T08:41:47;17.50;99.90
3086;DHT22;52812;48.960;9.108;2023-08-01T08:44:15;17.50;99.90
3086;DHT22;52812;48.960;9.108;2023-08-01T08:46:43;17.40;99.90
3086;DHT22;52812;48.960;9.108;2023-08-01T08:49:09;17.40;99.90
3086;DHT22;52812;48.960;9.108;2023-08-01T08:51:36;17.40;99.90
3086;DHT22;52812;48.960;9.108;2023-08-01T08:54:02;17.50;99.90
3086;DHT22;52812;48.960;9.108;2023-08-01T08:56:28;17.50;99.90
3086;DHT22;52812;48.960;9.108;2023-08-01T08:58:55;17.70;99.90
3086;DHT22;52812;48.960;9.108;2023-08-01T09:01:21;17.70;99.90
3086;DHT22;52812;48.960;9.108;2023-08-01T09:03:47;17.80;99.90
3086;DHT22;52812;48.960;9.108;2023-08-01T09:06:15;17.90;99.90
3086;DHT22;52812;48.960;9.108;2023-08-01T09:09:02;17.90;99.90
3086;DHT22;52812;48.960;9.108;2023-08-01T09:11:28;17.90;99.90
3086;DHT22;52812;48.960;9.108;2023-08-01T09:13:53;17.80;99.90
3086;DHT22;52812;48.960;9.108;2023-08-01T09:16:19;17.70;99.90
3086;DHT22;52812;48.960;9.108;2023-08-01T09:18:49;17.60;99.90
3086;DHT22;52812;48.960;9.108;2023-08-01T09:21:18;17.40;99.90
3086;DHT22;52812;48.960;9.108;2023-08-01T09:23:43;17.40;99.90
3086;DHT22;52812;48.960;9.108;2023-08-01T09:26:19;17.40;99.90
3086;DHT22;52812;48.960;9.108;2023-08-01T09:28:57;17.50;99.90
3086;DHT22;52812;48.960;9.108;2023-08-01T09:31:28;17.70;99.90
3086;DHT22;52812;48.960;9.108;2023-08-01T09:33:53;17.90;99.90
3086;DHT22;52812;48.960;9.108;2023-08-01T09:36:23;17.90;99.90
3086;DHT22;52812;48.960;9.108;2023-08-01T09:38:49;18.10;99.90
3086;DHT22;52812;48.960;9.108;2023-08-01T09:41:18;18.00;99.90
3086;DHT22;52812;48.960;9.108;2023-08-01T09:43:46;18.20;99.90
3086;DHT22;52812;48.960;9.108;2023-08-01T09:46:12;18.30;99.90
3086;DHT22;52812;48.960;9.108;2023-08-01T09:48:38;18.50;99.90
3086;DHT22;52812;48.960;9.108;2023-08-01T09:51:09;18.50;99.90
3086;DHT22;52812;48.960;9.108;2023-08-01T09:53:55;18.70;99.90
3086;DHT22;52812;48.960;9.108;2023-08-01T09:56:22;18.90;99.90
3086;DHT22;52812;48.960;9.108;2023-08-01T09:58:48;19.10;99.90
3086;DHT22;52812;48.960;9.108;2023-08-01T10:01:15;19.20;99.90
3086;DHT22;52812;48.960;9.108;2023-08-01T10:03:48;19.30;99.90
3086;DHT22;52812;48.960;9.108;2023-08-01T10:08:48;19.40;99.90
3086;DHT22;52812;48.960;9.108;2023-08-01T10:11:16;19.40;99.90
3086;DHT22;52812;48.960;9.108;2023-08-01T10:13:43;19.20;99.90
3086;DHT22;52812;48.960;9.108;2023-08-01T10:16:09;19.00;99.90
3086;DHT22;52812;48.960;9.108;2023-08-01T10:18:35;18.90;99.90
3086;DHT22;52812;48.960;9.108;2023-08-01T10:21:04;18.80;99.90
3086;DHT22;52812;48.960;9.108;2023-08-01T10:23:31;18.80;99.90
3086;DHT22;52812;48.960;9.108;2023-08-01T10:25:59;18.80;99.90
3086;DHT22;52812;48.960;9.108;2023-08-01T10:31:14;19.00;99.90
3086;DHT22;52812;48.960;9.108;2023-08-01T10:33:43;19.20;99.90
3086;DHT22;52812;48.960;9.108;2023-08-01T10:36:19;19.30;99.90
3086;DHT22;52812;48.960;9.108;2023-08-01T10:38:53;19.60;99.90
3086;DHT22;52812;48.960;9.108;2023-08-01T10:41:35;20.00;99.90
3086;DHT22;52812;48.960;9.108;2023-08-01T10:44:12;20.30;99.90
3086;DHT22;52812;48.960;9.108;2023-08-01T10:46:54;20.30;99.90
3086;DHT22;52812;48.960;9.108;2023-08-01T10:49:32;20.00;99.90
3086;DHT22;52812;48.960;9.108;2023-08-01T10:51:58;20.10;99.90
3086;DHT22;52812;48.960;9.108;2023-08-01T10:54:25;20.10;99.90
3086;DHT22;52812;48.960;9.108;2023-08-01T10:56:53;19.90;99.90
3086;DHT22;52812;48.960;9.108;2023-08-01T10:59:20;19.90;99.90
3086;DHT22;52812;48.960;9.108;2023-08-01T11:01:48;20.00;99.90
3086;DHT22;52812;48.960;9.108;2023-08-01T11:04:15;20.00;99.90
3086;DHT22;52812;48.960;9.108;2023-08-01T11:06:46;20.20;99.90
3086;DHT22;52812;48.960;9.108;2023-08-01T11:11:48;20.60;99.90
3086;DHT22;52812;48.960;9.108;2023-08-01T11:14:14;20.80;99.90
3086;DHT22;52812;48.960;9.108;2023-08-01T11:16:40;21.10;99.90
3086;DHT22;52812;48.960;9.108;2023-08-01T11:19:24;21.00;99.90
3086;DHT22;52812;48.960;9.108;2023-08-01T11:21:50;20.90;99.90
3086;DHT22;52812;48.960;9.108;2023-08-01T11:24:18;20.90;99.90
3086;DHT22;52812;48.960;9.108;2023-08-01T11:26:45;21.00;99.90
3086;DHT22;52812;48.960;9.108;2023-08-01T11:29:11;20.90;99.90
3086;DHT22;52812;48.960;9.108;2023-08-01T11:31:37;20.90;99.90
3086;DHT22;52812;48.960;9.108;2023-08-01T11:34:03;20.80;99.90
3086;DHT22;52812;48.960;9.108;2023-08-01T11:36:29;20.80;99.90
3086;DHT22;52812;48.960;9.108;2023-08-01T11:38:59;20.80;99.90
3086;DHT22;52812;48.960;9.108;2023-08-01T11:41:29;20.70;99.90
3086;DHT22;52812;48.960;9.108;2023-08-01T11:43:55;20.80;99.90
3086;DHT22;52812;48.960;9.108;2023-08-01T11:46:22;20.90;99.90
3086;DHT22;52812;48.960;9.108;2023-08-01T11:48:48;20.90;99.90
3086;DHT22;52812;48.960;9.108;2023-08-01T11:51:16;21.10;99.90
3086;DHT22;52812;48.960;9.108;2023-08-01T11:53:41;21.20;99.90
3086;DHT22;52812;48.960;9.108;2023-08-01T11:56:07;21.30;99.90
3086;DHT22;52812;48.960;9.108;2023-08-01T11:58:41;21.40;99.90
3086;DHT22;52812;48.960;9.108;2023-08-01T12:01:11;21.30;99.90
3086;DHT22;52812;48.960;9.108;2023-08-01T12:06:13;21.60;99.90
3086;DHT22;52812;48.960;9.108;2023-08-01T12:08:43;21.60;99.90
3086;DHT22;52812;48.960;9.108;2023-08-01T12:11:25;21.50;99.90
3086;DHT22;52812;48.960;9.108;2023-08-01T12:14:02;21.50;99.90
3086;DHT22;52812;48.960;9.108;2023-08-01T12:16:28;21.50;99.90
3086;DHT22;52812;48.960;9.108;2023-08-01T12:18:54;21.70;99.90
3086;DHT22;52812;48.960;9.108;2023-08-01T12:21:19;21.80;99.90
3086;DHT22;52812;48.960;9.108;2023-08-01T12:23:45;21.70;99.90
3086;DHT22;52812;48.960;9.108;2023-08-01T12:26:10;21.50;99.90
3086;DHT22;52812;48.960;9.108;2023-08-01T12:28:36;21.40;99.90
3086;DHT22;52812;48.960;9.108;2023-08-01T12:31:02;21.20;99.90
3086;DHT22;52812;48.960;9.108;2023-08-01T12:33:29;21.10;99.90
3086;DHT22;52812;48.960;9.108;2023-08-01T12:35:54;21.10;99.90
3086;DHT22;52812;48.960;9.108;2023-08-01T12:38:20;21.20;99.90
3086;DHT22;52812;48.960;9.108;2023-08-01T12:40:45;21.30;99.90
3086;DHT22;52812;48.960;9.108;2023-08-01T12:43:12;21.40;99.90
3086;DHT22;52812;48.960;9.108;2023-08-01T12:45:38;21.50;99.90
3086;DHT22;52812;48.960;9.108;2023-08-01T12:48:03;21.50;99.90
3086;DHT22;52812;48.960;9.108;2023-08-01T12:50:29;21.50;99.90
3086;DHT22;52812;48.960;9.108;2023-08-01T12:52:54;21.60;99.90
3086;DHT22;52812;48.960;9.108;2023-08-01T12:55:20;21.70;99.90
3086;DHT22;52812;48.960;9.108;2023-08-01T12:57:45;21.70;99.90
3086;DHT22;52812;48.960;9.108;2023-08-01T13:00:11;21.70;99.90
3086;DHT22;52812;48.960;9.108;2023-08-01T13:02:37;21.80;99.90
3086;DHT22;52812;48.960;9.108;2023-08-01T13:05:04;22.10;99.90
3086;DHT22;52812;48.960;9.108;2023-08-01T13:07:30;22.40;99.90
3086;DHT22;52812;48.960;9.108;2023-08-01T13:10:00;22.50;99.90
3086;DHT22;52812;48.960;9.108;2023-08-01T13:12:25;22.40;99.90
3086;DHT22;52812;48.960;9.108;2023-08-01T13:14:51;22.40;99.90
3086;DHT22;52812;48.960;9.108;2023-08-01T13:17:17;22.40;99.90
3086;DHT22;52812;48.960;9.108;2023-08-01T13:19:42;22.40;99.90
3086;DHT22;52812;48.960;9.108;2023-08-01T13:22:08;22.30;99.90
3086;DHT22;52812;48.960;9.108;2023-08-01T13:24:33;22.30;99.90
3086;DHT22;52812;48.960;9.108;2023-08-01T13:26:59;22.30;99.90
3086;DHT22;52812;48.960;9.108;2023-08-01T13:29:25;22.40;99.90
3086;DHT22;52812;48.960;9.108;2023-08-01T13:31:51;22.60;99.90
3086;DHT22;52812;48.960;9.108;2023-08-01T13:34:16;22.80;99.90
3086;DHT22;52812;48.960;9.108;2023-08-01T13:36:43;23.00;99.90
3086;DHT22;52812;48.960;9.108;2023-08-01T13:39:09;22.90;99.90
3086;DHT22;52812;48.960;9.108;2023-08-01T13:41:35;22.80;99.90
3086;DHT22;52812;48.960;9.108;2023-08-01T13:44:00;22.80;99.90
3086;DHT22;52812;48.960;9.108;2023-08-01T13:46:27;23.00;99.90
3086;DHT22;52812;48.960;9.108;2023-08-01T13:48:53;23.10;99.90
3086;DHT22;52812;48.960;9.108;2023-08-01T13:51:18;23.30;99.90
3086;DHT22;52812;48.960;9.108;2023-08-01T13:53:44;23.30;99.90
3086;DHT22;52812;48.960;9.108;2023-08-01T13:56:10;23.30;99.90
3086;DHT22;52812;48.960;9.108;2023-08-01T13:58:37;23.30;99.90
3086;DHT22;52812;48.960;9.108;2023-08-01T14:01:08;23.30;99.90
3086;DHT22;52812;48.960;9.108;2023-08-01T14:03:37;23.10;99.90
3086;DHT22;52812;48.960;9.108;2023-08-01T14:06:07;22.90;99.90
3086;DHT22;52812;48.960;9.108;2023-08-01T14:08:34;23.00;99.90
3086;DHT22;52812;48.960;9.108;2023-08-01T14:11:04;22.90;99.90
3086;DHT22;52812;48.960;9.108;2023-08-01T14:13:30;23.00;99.90
3086;DHT22;52812;48.960;9.108;2023-08-01T14:15:55;23.20;99.90
3086;DHT22;52812;48.960;9.108;2023-08-01T14:18:21;23.10;99.90
3086;DHT22;52812;48.960;9.108;2023-08-01T14:20:47;23.10;99.90
3086;DHT22;52812;48.960;9.108;2023-08-01T14:23:12;23.30;99.90
3086;DHT22;52812;48.960;9.108;2023-08-01T14:25:38;23.10;99.90
3086;DHT22;52812;48.960;9.108;2023-08-01T14:28:04;23.20;99.90
3086;DHT22;52812;48.960;9.108;2023-08-01T14:30:30;23.10;99.90
3086;DHT22;52812;48.960;9.108;2023-08-01T14:33:02;23.10;99.90
3086;DHT22;52812;48.960;9.108;2023-08-01T14:35:29;23.20;99.90
3086;DHT22;52812;48.960;9.108;2023-08-01T14:37:54;23.10;99.90
3086;DHT22;52812;48.960;9.108;2023-08-01T14:40:24;23.10;99.90
3086;DHT22;52812;48.960;9.108;2023-08-01T14:42:50;23.30;99.90
3086;DHT22;52812;48.960;9.108;2023-08-01T14:45:16;23.40;99.90
3086;DHT22;52812;48.960;9.108;2023-08-01T14:47:42;23.30;99.90
3086;DHT22;52812;48.960;9.108;2023-08-01T14:50:10;23.10;99.90
3086;DHT22;52812;48.960;9.108;2023-08-01T14:52:35;23.20;99.90
3086;DHT22;52812;48.960;9.108;2023-08-01T14:55:01;23.10;99.90
3086;DHT22;52812;48.960;9.108;2023-08-01T14:57:27;23.00;99.90
3086;DHT22;52812;48.960;9.108;2023-08-01T14:59:53;23.00;99.90
3086;DHT22;52812;48.960;9.108;2023-08-01T15:02:19;22.90;99.90
3086;DHT22;52812;48.960;9.108;2023-08-01T15:04:45;22.70;99.90
3086;DHT22;52812;48.960;9.108;2023-08-01T15:07:11;22.50;99.90
3086;DHT22;52812;48.960;9.108;2023-08-01T15:09:36;22.50;99.90
3086;DHT22;52812;48.960;9.108;2023-08-01T15:12:02;22.50;99.90
3086;DHT22;52812;48.960;9.108;2023-08-01T15:14:28;22.60;99.90
3086;DHT22;52812;48.960;9.108;2023-08-01T15:16:54;22.70;99.90
3086;DHT22;52812;48.960;9.108;2023-08-01T15:19:20;22.60;99.90
3086;DHT22;52812;48.960;9.108;2023-08-01T15:21:46;22.50;99.90
3086;DHT22;52812;48.960;9.108;2023-08-01T15:24:12;22.20;99.90
3086;DHT22;52812;48.960;9.108;2023-08-01T15:26:37;22.20;99.90
3086;DHT22;52812;48.960;9.108;2023-08-01T15:29:05;22.20;99.90
3086;DHT22;52812;48.960;9.108;2023-08-01T15:31:32;22.10;99.90
3086;DHT22;52812;48.960;9.108;2023-08-01T15:33:57;22.20;99.90
3086;DHT22;52812;48.960;9.108;2023-08-01T15:36:26;22.40;99.90
3086;DHT22;52812;48.960;9.108;2023-08-01T15:38:52;22.40;99.90
3086;DHT22;52812;48.960;9.108;2023-08-01T15:41:17;22.40;99.90
3086;DHT22;52812;48.960;9.108;2023-08-01T15:43:43;22.40;99.90
3086;DHT22;52812;48.960;9.108;2023-08-01T15:46:09;22.40;99.90
3086;DHT22;52812;48.960;9.108;2023-08-01T15:48:36;22.30;99.90
3086;DHT22;52812;48.960;9.108;2023-08-01T15:51:03;22.30;99.90